Time;durP1;ratioP1;P1;durP2;ratioP2;P2;SDS_P1;SDS_P2;PMS_P1;PMS_P2;Temp;Humidity;BMP_temperature;BMP_pressure;BME280_temperature;BME280_humidity;BME280_pressure;Samples;Min_cycle;Max_cycle;Signal;HPM_P1;HPM_P2
2023/07/22 00:00:26;;;;;;;2.83;2.30;;;16.60;99.90;;;;;;5055957;28;20238;-72
2023/07/22 00:02:52;;;;;;;3.50;2.30;;;17.00;99.90;;;;;;5052154;28;20204;-74
2023/07/22 00:05:23;;;;;;;2.73;2.53;;;16.60;99.90;;;;;;5046091;28;20281;-72
2023/07/22 00:07:51;;;;;;;2.80;2.55;;;16.40;99.90;;;;;;5054389;28;20184;-74
2023/07/22 00:10:17;;;;;;;2.90;2.70;;;16.50;99.90;;;;;;5064831;28;20181;-74
2023/07/22 00:12:42;;;;;;;2.73;2.50;;;16.30;99.90;;;;;;5042742;28;20181;-73
2023/07/22 00:15:11;;;;;;;2.87;2.67;;;16.30;99.90;;;;;;5068515;28;20208;-73
2023/07/22 00:17:37;;;;;;;5.25;2.47;;;16.20;99.90;;;;;;5074761;28;20706;-74
2023/07/22 00:20:04;;;;;;;3.63;3.30;;;16.00;99.90;;;;;;5069242;28;20215;-74
2023/07/22 00:22:31;;;;;;;2.70;2.47;;;16.40;99.90;;;;;;5056040;28;20223;-72
2023/07/22 00:24:59;;;;;;;3.30;3.00;;;16.30;99.90;;;;;;5069365;28;20746;-72
2023/07/22 00:27:25;;;;;;;2.65;2.30;;;16.30;99.90;;;;;;5045578;28;20238;-73
2023/07/22 00:29:51;;;;;;;2.77;2.57;;;16.20;99.90;;;;;;5050014;28;20177;-72
2023/07/22 00:32:16;;;;;;;2.67;2.47;;;16.10;99.90;;;;;;5050982;28;20184;-71
2023/07/22 00:34:42;;;;;;;3.00;2.70;;;16.20;99.90;;;;;;5059898;28;20494;-71
2023/07/22 00:37:08;;;;;;;3.77;2.57;;;16.10;99.90;;;;;;5072729;28;20230;-71
2023/07/22 00:39:33;;;;;;;2.60;2.40;;;15.80;99.90;;;;;;5070403;28;20552;-74
2023/07/22 00:41:59;;;;;;;4.00;2.90;;;16.00;99.90;;;;;;5078012;28;20216;-72
2023/07/22 00:44:25;;;;;;;3.43;2.90;;;16.00;99.90;;;;;;5049289;28;21241;-72
2023/07/22 00:46:55;;;;;;;3.20;2.93;;;15.80;99.90;;;;;;5069225;28;20520;-71
2023/07/22 00:49:21;;;;;;;2.85;2.55;;;15.80;99.90;;;;;;5074840;28;20259;-72
2023/07/22 00:51:47;;;;;;;3.10;2.90;;;15.70;99.90;;;;;;5047835;28;20185;-71
2023/07/22 00:54:12;;;;;;;2.70;2.50;;;15.70;99.90;;;;;;5059038;28;20630;-72
2023/07/22 00:56:41;;;;;;;2.83;2.57;;;15.90;99.90;;;;;;5068934;28;21018;-71
2023/07/22 00:59:07;;;;;;;3.50;2.50;;;15.60;99.90;;;;;;5052655;28;20196;-71
2023/07/22 01:01:32;;;;;;;2.53;2.43;;;15.60;99.90;;;;;;5056381;28;20208;-72
2023/07/22 01:03:58;;;;;;;3.07;2.60;;;15.70;99.90;;;;;;5052751;28;20283;-73
2023/07/22 01:06:30;;;;;;;3.17;2.90;;;15.50;99.90;;;;;;5052986;28;20195;-73
2023/07/22 01:08:58;;;;;;;2.50;2.30;;;15.30;99.90;;;;;;5053906;28;20441;-71
2023/07/22 01:11:24;;;;;;;2.85;2.45;;;15.50;99.90;;;;;;5048583;28;20188;-74
2023/07/22 01:13:49;;;;;;;2.53;2.33;;;15.60;99.90;;;;;;5044714;28;20200;-72
2023/07/22 01:16:16;;;;;;;2.83;2.53;;;15.40;99.90;;;;;;5054447;28;20728;-72
2023/07/22 01:18:42;;;;;;;2.63;2.42;;;15.40;99.90;;;;;;5051538;28;20335;-72
2023/07/22 01:21:08;;;;;;;2.60;2.40;;;15.30;99.90;;;;;;5049272;28;20185;-73
2023/07/22 01:23:36;;;;;;;3.28;2.38;;;15.30;99.90;;;;;;5050790;28;20696;-73
2023/07/22 01:26:02;;;;;;;3.15;2.63;;;15.00;99.90;;;;;;5070586;28;20204;-73
2023/07/22 01:28:28;;;;;;;2.60;2.40;;;15.10;99.90;;;;;;5046675;28;20223;-72
2023/07/22 01:30:54;;;;;;;2.70;2.50;;;15.30;99.90;;;;;;5076790;28;20181;-73
2023/07/22 01:33:20;;;;;;;3.00;2.77;;;15.20;99.90;;;;;;5055916;28;20267;-74
2023/07/22 01:35:45;;;;;;;2.70;2.50;;;15.20;99.90;;;;;;5073213;28;20196;-74
2023/07/22 01:38:11;;;;;;;2.70;2.50;;;15.30;99.90;;;;;;5067078;28;20760;-72
2023/07/22 01:40:38;;;;;;;2.80;2.50;;;15.10;99.90;;;;;;5054325;28;20260;-72
2023/07/22 01:43:03;;;;;;;3.10;2.50;;;15.00;99.90;;;;;;5044727;28;20212;-73
2023/07/22 01:45:29;;;;;;;2.97;2.67;;;15.00;99.90;;;;;;5066887;28;20196;-74
2023/07/22 01:47:55;;;;;;;2.80;2.43;;;15.20;99.90;;;;;;5062224;28;20533;-73
2023/07/22 01:50:20;;;;;;;2.80;2.60;;;15.10;99.90;;;;;;5061275;28;20189;-73
2023/07/22 01:52:46;;;;;;;3.53;2.83;;;15.20;99.90;;;;;;5067498;28;20181;-72
2023/07/22 01:55:12;;;;;;;2.93;2.63;;;15.40;99.90;;;;;;5048568;28;21261;-73
2023/07/22 01:57:39;;;;;;;3.00;2.70;;;15.10;99.90;;;;;;5066431;28;20650;-73
2023/07/22 02:00:05;;;;;;;3.15;2.60;;;15.00;99.90;;;;;;5049063;28;20657;-73
2023/07/22 02:02:31;;;;;;;3.35;2.47;;;15.00;99.90;;;;;;5056283;28;20986;-71
2023/07/22 02:04:56;;;;;;;2.60;2.40;;;14.90;99.90;;;;;;5071950;28;20287;-73
2023/07/22 02:07:26;;;;;;;3.30;2.70;;;14.80;99.90;;;;;;5055249;28;20172;-73
2023/07/22 02:09:51;;;;;;;5.05;2.75;;;14.80;99.90;;;;;;5047343;28;20573;-72
2023/07/22 02:12:17;;;;;;;2.93;2.73;;;15.00;99.90;;;;;;5054457;28;20246;-73
2023/07/22 02:14:43;;;;;;;2.80;2.60;;;14.80;99.90;;;;;;5048223;28;20240;-72
2023/07/22 02:17:09;;;;;;;3.17;2.83;;;14.80;99.90;;;;;;5055365;28;20631;-73
2023/07/22 02:19:35;;;;;;;2.50;2.30;;;14.80;99.90;;;;;;5049630;28;20501;-73
2023/07/22 02:22:01;;;;;;;3.22;2.92;;;14.70;99.90;;;;;;5069058;28;20245;-73
2023/07/22 02:24:26;;;;;;;4.50;2.90;;;14.90;99.90;;;;;;5069311;28;20692;-73
2023/07/22 02:26:52;;;;;;;2.50;2.30;;;14.80;99.90;;;;;;5050966;28;20723;-72
2023/07/22 02:29:19;;;;;;;2.77;2.57;;;15.00;99.90;;;;;;5050597;28;20541;-73
2023/07/22 02:31:46;;;;;;;3.65;2.40;;;14.80;99.90;;;;;;5066240;28;21135;-72
2023/07/22 02:34:11;;;;;;;2.80;2.50;;;14.80;99.90;;;;;;5051893;28;20213;-73
2023/07/22 02:36:37;;;;;;;2.77;2.50;;;14.80;99.90;;;;;;5068335;28;20181;-73
2023/07/22 02:39:03;;;;;;;2.80;2.60;;;14.80;99.90;;;;;;5050998;28;20185;-73
2023/07/22 02:41:29;;;;;;;4.10;2.70;;;14.80;99.90;;;;;;5066549;28;20292;-73
2023/07/22 02:43:54;;;;;;;3.27;2.50;;;14.70;99.90;;;;;;5054761;28;20629;-74
2023/07/22 02:46:20;;;;;;;2.80;2.43;;;14.90;99.90;;;;;;5064663;28;21020;-73
2023/07/22 02:48:46;;;;;;;2.90;2.60;;;14.80;99.90;;;;;;5069770;28;20180;-72
2023/07/22 02:51:11;;;;;;;3.27;3.07;;;14.80;99.90;;;;;;5055024;28;20188;-72
2023/07/22 02:53:37;;;;;;;2.73;2.50;;;15.00;99.90;;;;;;5048239;28;20262;-73
2023/07/22 02:56:04;;;;;;;3.40;3.10;;;14.80;99.90;;;;;;5049312;28;20190;-71
2023/07/22 02:58:29;;;;;;;4.40;2.95;;;14.90;99.90;;;;;;5054917;28;20183;-73
2023/07/22 03:00:57;;;;;;;2.90;2.67;;;14.90;99.90;;;;;;5050876;28;20185;-73
2023/07/22 03:03:23;;;;;;;2.90;2.70;;;14.70;99.90;;;;;;5062883;28;20201;-72
2023/07/22 03:05:48;;;;;;;3.43;3.13;;;14.90;99.90;;;;;;5068939;28;20177;-72
2023/07/22 03:08:15;;;;;;;2.77;2.50;;;14.80;99.90;;;;;;5070661;28;20686;-73
2023/07/22 03:10:40;;;;;;;3.13;2.92;;;15.00;99.90;;;;;;5069750;28;20307;-72
2023/07/22 03:13:07;;;;;;;3.10;2.80;;;14.70;99.90;;;;;;5045777;28;20938;-72
2023/07/22 03:15:33;;;;;;;3.60;3.30;;;14.80;99.90;;;;;;5048708;28;20571;-73
2023/07/22 03:17:59;;;;;;;3.00;2.67;;;14.70;99.90;;;;;;5069855;28;20206;-72
2023/07/22 03:20:25;;;;;;;3.15;2.78;;;14.80;99.90;;;;;;5048010;28;20180;-72
2023/07/22 03:22:52;;;;;;;3.60;3.30;;;14.80;99.90;;;;;;5050284;28;20564;-72
2023/07/22 03:25:17;;;;;;;2.70;2.50;;;14.80;99.90;;;;;;5047441;28;20200;-73
2023/07/22 03:27:46;;;;;;;2.80;2.60;;;14.80;99.90;;;;;;5047702;28;20280;-72
2023/07/22 03:30:14;;;;;;;2.75;2.55;;;14.80;99.90;;;;;;5062282;28;20450;-73
2023/07/22 03:32:42;;;;;;;2.67;2.47;;;14.80;99.90;;;;;;5064221;28;20184;-72
2023/07/22 03:35:11;;;;;;;3.13;2.83;;;14.90;99.90;;;;;;5062631;28;20213;-73
2023/07/22 03:37:38;;;;;;;2.88;2.50;;;14.60;99.90;;;;;;5049992;28;20207;-73
2023/07/22 03:40:38;;;;;;;2.38;2.17;;;14.70;99.90;;;;;;5048332;28;20271;-73
2023/07/22 03:42:57;;;;;;;2.97;2.78;;;14.80;99.90;;;;;;5059833;28;20217;-73
2023/07/22 03:45:23;;;;;;;2.88;2.67;;;14.60;99.90;;;;;;5071358;28;20200;-73
2023/07/22 03:47:56;;;;;;;3.33;2.50;;;14.50;99.90;;;;;;5048678;28;20242;-72
2023/07/22 03:50:21;;;;;;;6.70;3.10;;;14.70;99.90;;;;;;5046614;28;20260;-73
2023/07/22 03:52:47;;;;;;;3.33;2.50;;;14.80;99.90;;;;;;5057959;28;20314;-73
2023/07/22 03:55:12;;;;;;;2.80;2.60;;;14.60;99.90;;;;;;5069334;28;20274;-72
2023/07/22 03:57:38;;;;;;;4.03;3.20;;;14.60;99.90;;;;;;5047946;28;20267;-73
2023/07/22 04:00:05;;;;;;;2.80;2.60;;;14.60;99.90;;;;;;5048334;28;20187;-73
2023/07/22 04:02:31;;;;;;;3.50;3.20;;;14.80;99.90;;;;;;5050741;28;20205;-73
2023/07/22 04:04:56;;;;;;;3.87;3.13;;;14.80;99.90;;;;;;5053290;28;20201;-71
2023/07/22 04:07:22;;;;;;;3.60;3.03;;;14.60;99.90;;;;;;5074823;28;20209;-74
2023/07/22 04:09:48;;;;;;;2.70;2.50;;;14.80;99.90;;;;;;5053925;28;20426;-71
2023/07/22 04:12:14;;;;;;;2.47;2.33;;;14.50;99.90;;;;;;5056783;28;20193;-73
2023/07/22 04:14:40;;;;;;;2.60;2.40;;;14.70;99.90;;;;;;5069984;28;20486;-73
2023/07/22 04:17:06;;;;;;;3.90;2.88;;;14.40;99.90;;;;;;5054341;28;20189;-72
2023/07/22 04:19:32;;;;;;;3.47;3.17;;;14.60;99.90;;;;;;5056331;28;20177;-73
2023/07/22 04:21:57;;;;;;;4.10;2.73;;;14.70;99.90;;;;;;5054521;28;20216;-73
2023/07/22 04:24:24;;;;;;;4.60;3.73;;;14.60;99.90;;;;;;5069938;28;20610;-72
2023/07/22 04:26:50;;;;;;;3.75;2.78;;;14.60;99.90;;;;;;5069329;28;20172;-72
2023/07/22 04:29:16;;;;;;;3.37;3.07;;;14.50;99.90;;;;;;5069174;28;20192;-73
2023/07/22 04:31:41;;;;;;;3.00;2.80;;;14.80;99.90;;;;;;5053513;28;20184;-73
2023/07/22 04:34:07;;;;;;;3.27;2.97;;;14.80;99.90;;;;;;5068313;28;20783;-72
2023/07/22 04:36:33;;;;;;;3.10;2.80;;;14.60;99.90;;;;;;5055666;28;20198;-72
2023/07/22 04:38:59;;;;;;;3.20;2.90;;;14.70;99.90;;;;;;5069454;28;20451;-72
2023/07/22 04:41:25;;;;;;;4.63;2.90;;;14.90;99.90;;;;;;5052942;28;21028;-72
2023/07/22 04:43:51;;;;;;;3.20;2.90;;;15.00;99.90;;;;;;5048423;28;20258;-72
2023/07/22 04:46:17;;;;;;;2.65;2.45;;;14.80;99.90;;;;;;5069847;28;20469;-73
2023/07/22 04:48:43;;;;;;;2.65;2.45;;;15.00;99.90;;;;;;5070782;28;20806;-72
2023/07/22 04:51:08;;;;;;;3.10;2.43;;;15.10;99.90;;;;;;5049696;28;20188;-71
2023/07/22 04:53:34;;;;;;;3.10;2.90;;;15.20;99.90;;;;;;5053117;28;20204;-71
2023/07/22 04:56:00;;;;;;;3.37;2.90;;;15.20;99.90;;;;;;5067643;28;20184;-72
2023/07/22 04:58:25;;;;;;;2.70;2.50;;;15.10;99.90;;;;;;5078548;28;20186;-74
2023/07/22 05:00:51;;;;;;;2.53;2.33;;;15.30;99.90;;;;;;5045463;28;20194;-73
2023/07/22 05:03:18;;;;;;;3.67;2.60;;;15.10;99.90;;;;;;5074177;28;20235;-72
2023/07/22 05:05:44;;;;;;;2.38;2.17;;;15.40;99.90;;;;;;5070410;28;21322;-73
2023/07/22 05:08:10;;;;;;;3.13;2.83;;;15.40;99.90;;;;;;5051454;28;20216;-72
2023/07/22 05:10:37;;;;;;;2.85;2.63;;;15.60;99.90;;;;;;5059169;28;20219;-72
2023/07/22 05:13:03;;;;;;;2.72;2.53;;;15.70;99.90;;;;;;5073818;28;20613;-72
2023/07/22 05:15:29;;;;;;;6.07;5.50;;;16.00;99.90;;;;;;5073533;28;20228;-72
2023/07/22 05:17:54;;;;;;;5.33;4.83;;;15.70;99.90;;;;;;5054893;28;20276;-72
2023/07/22 05:20:20;;;;;;;3.23;2.97;;;15.70;99.90;;;;;;5055076;28;20184;-72
2023/07/22 05:22:46;;;;;;;3.20;2.90;;;16.10;99.90;;;;;;5070528;28;20208;-73
2023/07/22 05:25:11;;;;;;;3.20;2.90;;;15.90;99.90;;;;;;5051717;28;20288;-73
2023/07/22 05:27:37;;;;;;;3.13;2.83;;;16.00;99.90;;;;;;5071044;28;20177;-73
2023/07/22 05:30:03;;;;;;;3.33;3.03;;;16.00;99.90;;;;;;5050774;28;20264;-74
2023/07/22 05:32:29;;;;;;;3.42;2.83;;;16.20;99.90;;;;;;5068977;28;20181;-72
2023/07/22 05:34:56;;;;;;;2.92;2.72;;;16.00;99.90;;;;;;5053169;28;20230;-73
2023/07/22 05:37:22;;;;;;;2.95;2.75;;;16.20;99.90;;;;;;5057171;28;20242;-73
2023/07/22 05:39:47;;;;;;;2.70;2.50;;;16.40;99.90;;;;;;5076624;28;20176;-72
2023/07/22 05:42:13;;;;;;;2.90;2.60;;;16.30;99.90;;;;;;5053976;28;20236;-73
2023/07/22 05:44:39;;;;;;;2.90;2.60;;;16.60;99.90;;;;;;5044628;28;20220;-73
2023/07/22 05:47:05;;;;;;;3.23;2.80;;;16.60;99.90;;;;;;5049923;28;20257;-73
2023/07/22 05:49:30;;;;;;;3.00;2.75;;;16.50;99.90;;;;;;5071664;28;20173;-75
2023/07/22 05:51:56;;;;;;;2.93;2.73;;;16.80;99.90;;;;;;5070762;28;20195;-75
2023/07/22 05:54:22;;;;;;;2.77;2.57;;;17.10;99.90;;;;;;5050718;28;20291;-73
2023/07/22 05:56:47;;;;;;;4.37;3.97;;;17.10;99.90;;;;;;5072906;28;20188;-74
2023/07/22 05:59:13;;;;;;;2.83;2.60;;;17.30;99.90;;;;;;5067290;28;20550;-73
2023/07/22 06:01:39;;;;;;;3.90;3.60;;;17.50;99.90;;;;;;5052954;28;20236;-74
2023/07/22 06:04:05;;;;;;;2.93;2.73;;;17.90;99.90;;;;;;5056065;28;20200;-73
2023/07/22 06:06:31;;;;;;;2.27;2.03;;;17.90;99.90;;;;;;5072063;28;20594;-73
2023/07/22 06:08:57;;;;;;;4.05;2.40;;;17.90;99.90;;;;;;5050327;28;20470;-73
2023/07/22 06:11:22;;;;;;;3.40;2.33;;;18.10;99.90;;;;;;5070320;28;20208;-73
2023/07/22 06:13:48;;;;;;;3.43;2.63;;;18.10;99.90;;;;;;5068753;28;20234;-73
2023/07/22 06:16:13;;;;;;;3.50;3.20;;;18.20;99.90;;;;;;5075766;28;20189;-73
2023/07/22 06:18:39;;;;;;;3.03;2.73;;;18.40;99.90;;;;;;5074457;28;20212;-73
2023/07/22 06:21:05;;;;;;;2.90;2.50;;;18.50;99.90;;;;;;5071630;28;20180;-73
2023/07/22 06:23:31;;;;;;;3.13;2.83;;;18.60;99.90;;;;;;5056595;28;20503;-73
2023/07/22 06:25:56;;;;;;;3.00;2.70;;;18.80;99.90;;;;;;5050480;28;20250;-73
2023/07/22 06:28:22;;;;;;;2.73;2.40;;;18.90;99.90;;;;;;5049488;28;20180;-74
2023/07/22 06:30:47;;;;;;;3.00;2.50;;;18.90;99.90;;;;;;5069079;28;20279;-74
2023/07/22 06:33:13;;;;;;;3.87;3.57;;;19.00;99.90;;;;;;5070691;28;20724;-73
2023/07/22 06:35:38;;;;;;;3.70;3.20;;;18.90;99.90;;;;;;5049506;28;20200;-74
2023/07/22 06:38:04;;;;;;;3.40;3.10;;;19.20;99.90;;;;;;5041908;28;20653;-71
2023/07/22 06:40:30;;;;;;;3.17;2.87;;;19.30;99.90;;;;;;5048674;28;22006;-72
2023/07/22 06:42:55;;;;;;;3.50;3.20;;;19.30;99.90;;;;;;5045656;28;20213;-75
2023/07/22 06:45:21;;;;;;;3.60;3.30;;;19.50;99.90;;;;;;5056103;28;20375;-73
2023/07/22 06:47:47;;;;;;;2.97;2.77;;;19.50;99.90;;;;;;5074031;28;20193;-74
2023/07/22 06:50:12;;;;;;;2.93;2.63;;;19.50;99.90;;;;;;5066524;28;20210;-72
2023/07/22 06:52:38;;;;;;;3.03;2.83;;;19.60;99.90;;;;;;5056554;28;20964;-72
2023/07/22 06:55:05;;;;;;;3.37;2.87;;;20.00;99.90;;;;;;5046695;28;20212;-73
2023/07/22 06:57:30;;;;;;;3.50;2.70;;;20.20;99.30;;;;;;5058151;28;20215;-74
2023/07/22 06:59:56;;;;;;;3.57;3.27;;;20.40;98.90;;;;;;5066445;28;20200;-73
2023/07/22 07:02:22;;;;;;;6.60;2.60;;;20.80;98.00;;;;;;5052806;28;20754;-73
2023/07/22 07:04:48;;;;;;;3.87;3.00;;;21.10;97.50;;;;;;5068517;28;20200;-74
2023/07/22 07:07:16;;;;;;;4.10;2.70;;;21.30;96.90;;;;;;5066521;28;20485;-74
2023/07/22 07:09:42;;;;;;;2.72;2.53;;;21.40;96.50;;;;;;5052034;28;20176;-73
2023/07/22 07:12:08;;;;;;;3.00;2.77;;;21.60;96.10;;;;;;5050012;28;20215;-74
2023/07/22 07:14:34;;;;;;;2.80;2.60;;;22.00;95.40;;;;;;5066220;28;20708;-74
2023/07/22 07:17:00;;;;;;;2.43;2.23;;;22.30;94.10;;;;;;5046097;28;20446;-74
2023/07/22 07:19:26;;;;;;;2.53;2.10;;;23.50;93.30;;;;;;5048374;28;20727;-74
2023/07/22 07:21:52;;;;;;;2.60;2.10;;;25.60;90.10;;;;;;5047239;28;20467;-75
2023/07/22 07:24:18;;;;;;;3.10;2.53;;;27.70;82.30;;;;;;5066315;28;20468;-74
2023/07/22 07:26:44;;;;;;;2.57;2.37;;;30.00;70.50;;;;;;5031210;28;20189;-73
2023/07/22 07:29:10;;;;;;;2.20;1.93;;;31.20;62.10;;;;;;5068692;28;20199;-74
2023/07/22 07:31:37;;;;;;;2.93;2.73;;;32.10;59.50;;;;;;5070893;28;20462;-73
2023/07/22 07:34:02;;;;;;;2.93;2.73;;;33.40;57.40;;;;;;5069052;28;21023;-75
2023/07/22 07:36:28;;;;;;;3.30;3.00;;;32.50;56.00;;;;;;5048715;28;20447;-73
2023/07/22 07:38:53;;;;;;;3.20;3.00;;;31.90;56.10;;;;;;5070194;28;20563;-73
2023/07/22 07:41:20;;;;;;;3.20;2.90;;;33.10;54.90;;;;;;5057634;28;20191;-73
2023/07/22 07:43:46;;;;;;;3.10;2.67;;;35.00;50.70;;;;;;5066305;28;20207;-74
2023/07/22 07:46:17;;;;;;;2.80;2.33;;;33.90;49.00;;;;;;5057522;28;20808;-74
2023/07/22 07:48:43;;;;;;;2.37;2.17;;;34.20;46.60;;;;;;5067390;28;20173;-74
2023/07/22 07:51:08;;;;;;;2.40;2.20;;;34.40;44.30;;;;;;5072891;28;20504;-74
2023/07/22 07:53:34;;;;;;;2.03;1.90;;;34.00;44.70;;;;;;5074933;28;20982;-73
2023/07/22 07:56:00;;;;;;;2.30;2.10;;;33.80;44.50;;;;;;5074517;28;20273;-73
2023/07/22 07:58:25;;;;;;;2.70;2.50;;;35.20;43.70;;;;;;5057070;28;20176;-73
2023/07/22 08:00:51;;;;;;;2.10;1.80;;;35.00;42.20;;;;;;5056576;28;20181;-73
2023/07/22 08:03:16;;;;;;;3.60;3.30;;;34.60;43.40;;;;;;5071552;28;20212;-73
2023/07/22 08:05:42;;;;;;;2.10;1.90;;;36.00;42.00;;;;;;5052862;28;20239;-74
2023/07/22 08:08:07;;;;;;;2.00;1.90;;;35.70;40.80;;;;;;5069442;28;20192;-73
2023/07/22 08:10:33;;;;;;;1.73;1.63;;;35.60;39.70;;;;;;5046768;28;20185;-74
2023/07/22 08:12:59;;;;;;;3.60;2.00;;;35.30;39.70;;;;;;5066476;28;20197;-74
2023/07/22 08:15:24;;;;;;;1.90;1.80;;;35.70;39.10;;;;;;5074497;28;20588;-74
2023/07/22 08:17:50;;;;;;;2.87;1.83;;;35.50;38.80;;;;;;5066662;28;20446;-73
2023/07/22 08:20:16;;;;;;;2.47;2.27;;;36.10;38.80;;;;;;5049926;28;20193;-73
2023/07/22 08:22:41;;;;;;;1.90;1.60;;;36.30;38.00;;;;;;5073003;28;20730;-74
2023/07/22 08:25:07;;;;;;;1.50;1.40;;;36.50;37.60;;;;;;5067515;28;20205;-74
2023/07/22 08:27:33;;;;;;;1.90;1.80;;;35.40;37.90;;;;;;5054071;28;20195;-74
2023/07/22 08:29:58;;;;;;;2.20;2.00;;;36.30;37.40;;;;;;5070401;28;20667;-74
2023/07/22 08:32:24;;;;;;;2.03;1.80;;;35.80;37.30;;;;;;5071406;28;20227;-74
2023/07/22 08:34:49;;;;;;;2.30;1.43;;;35.60;36.60;;;;;;5075101;28;20200;-74
2023/07/22 08:37:15;;;;;;;2.03;1.83;;;35.70;36.40;;;;;;5065040;28;20184;-73
2023/07/22 08:39:40;;;;;;;2.20;1.93;;;35.40;37.60;;;;;;5043520;28;20180;-73
2023/07/22 08:42:08;;;;;;;2.57;2.10;;;35.90;37.20;;;;;;5055065;28;20379;-74
2023/07/22 08:44:41;;;;;;;2.23;2.10;;;36.00;36.70;;;;;;5052434;28;20216;-73
2023/07/22 08:47:10;;;;;;;2.03;1.93;;;35.90;37.10;;;;;;5078728;28;20461;-73
2023/07/22 08:49:35;;;;;;;2.10;1.80;;;36.80;35.60;;;;;;5049471;28;20655;-73
2023/07/22 08:52:01;;;;;;;2.83;2.63;;;36.70;35.00;;;;;;5049417;28;20524;-74
2023/07/22 08:54:28;;;;;;;2.03;1.70;;;35.90;35.80;;;;;;5052029;28;20204;-74
2023/07/22 08:56:54;;;;;;;2.30;2.10;;;35.80;34.70;;;;;;5076935;28;20195;-72
2023/07/22 08:59:20;;;;;;;3.20;1.97;;;35.80;34.40;;;;;;5067066;28;20534;-74
2023/07/22 09:01:48;;;;;;;1.63;1.53;;;36.40;34.20;;;;;;5073981;28;20477;-73
2023/07/22 09:04:14;;;;;;;2.80;2.60;;;36.00;34.20;;;;;;5069806;28;20217;-74
2023/07/22 09:06:41;;;;;;;1.97;1.87;;;35.10;34.70;;;;;;5055523;28;20566;-70
2023/07/22 09:09:08;;;;;;;2.43;2.23;;;33.30;35.80;;;;;;5067811;28;20448;-69
2023/07/22 09:11:34;;;;;;;1.83;1.60;;;31.70;37.40;;;;;;5074008;28;20451;-69
2023/07/22 09:14:02;;;;;;;3.17;2.40;;;30.60;38.40;;;;;;5052933;28;20459;-70
2023/07/22 09:16:29;;;;;;;2.20;1.90;;;29.50;40.50;;;;;;5074655;28;20449;-70
2023/07/22 09:18:57;;;;;;;2.63;2.20;;;28.70;41.80;;;;;;5068747;28;20451;-70
2023/07/22 09:21:22;;;;;;;2.40;2.00;;;28.10;43.60;;;;;;5056126;28;20449;-71
2023/07/22 09:23:48;;;;;;;2.77;2.57;;;28.00;44.60;;;;;;5071919;28;20469;-71
2023/07/22 09:26:18;;;;;;;3.50;2.03;;;27.90;45.20;;;;;;5070734;28;20567;-69
2023/07/22 09:28:52;;;;;;;2.07;1.87;;;27.70;45.90;;;;;;5049111;28;20670;-70
2023/07/22 09:31:20;;;;;;;3.00;2.70;;;27.00;46.10;;;;;;5052139;28;20549;-70
2023/07/22 09:33:45;;;;;;;4.40;2.80;;;26.90;47.30;;;;;;5048646;28;20586;-69
2023/07/22 09:36:12;;;;;;;2.40;1.90;;;26.60;47.90;;;;;;5069058;28;20483;-70
2023/07/22 09:38:37;;;;;;;1.87;1.67;;;26.60;48.40;;;;;;5064731;28;20639;-69
2023/07/22 09:41:03;;;;;;;2.43;2.23;;;26.60;47.70;;;;;;5068632;28;20450;-69
2023/07/22 09:43:30;;;;;;;1.60;1.50;;;26.60;47.70;;;;;;5068913;28;20208;-70
2023/07/22 09:45:55;;;;;;;2.00;1.90;;;26.90;47.20;;;;;;5052176;28;20481;-70
2023/07/22 09:48:22;;;;;;;2.10;1.93;;;27.10;47.10;;;;;;5046328;28;20479;-69
2023/07/22 09:50:57;;;;;;;2.20;1.93;;;27.50;46.70;;;;;;5043624;28;20197;-70
2023/07/22 09:53:22;;;;;;;2.40;1.97;;;27.90;46.20;;;;;;5068246;28;20435;-70
2023/07/22 09:55:48;;;;;;;2.10;2.00;;;28.00;45.90;;;;;;5053588;28;20551;-69
2023/07/22 09:58:14;;;;;;;2.03;1.87;;;27.80;45.70;;;;;;5068469;28;20196;-70
2023/07/22 10:00:47;;;;;;;2.60;2.40;;;28.00;45.90;;;;;;5067794;28;20191;-71
2023/07/22 10:03:15;;;;;;;2.63;2.43;;;29.20;44.80;;;;;;5071656;28;20474;-72
2023/07/22 10:05:42;;;;;;;2.63;2.03;;;30.90;42.70;;;;;;5071020;28;20982;-71
2023/07/22 10:08:09;;;;;;;1.93;1.83;;;32.20;40.60;;;;;;5066780;28;20962;-71
2023/07/22 10:10:37;;;;;;;2.13;1.93;;;33.30;38.30;;;;;;5050373;28;20446;-71
2023/07/22 10:13:04;;;;;;;1.97;1.77;;;33.30;36.70;;;;;;5065285;28;20523;-71
2023/07/22 10:15:33;;;;;;;1.80;1.60;;;32.40;37.00;;;;;;5052156;28;20470;-70
2023/07/22 10:18:04;;;;;;;2.37;2.17;;;32.50;37.50;;;;;;5069662;28;20458;-71
2023/07/22 10:20:34;;;;;;;2.00;1.80;;;32.10;38.10;;;;;;5063846;28;20476;-70
2023/07/22 10:23:01;;;;;;;2.43;1.80;;;31.50;39.10;;;;;;5061680;28;20563;-70
2023/07/22 10:25:26;;;;;;;2.17;1.30;;;30.50;39.10;;;;;;5071705;28;20500;-71
2023/07/22 10:27:53;;;;;;;1.70;1.60;;;29.70;40.30;;;;;;5047868;28;21035;-68
2023/07/22 10:30:19;;;;;;;2.20;2.00;;;29.10;41.60;;;;;;5052727;28;20561;-70
2023/07/22 10:32:50;;;;;;;2.70;2.50;;;28.80;42.60;;;;;;5072886;28;20511;-71
2023/07/22 10:35:31;;;;;;;3.90;1.60;;;28.80;43.50;;;;;;5060941;28;20519;-70
2023/07/22 10:38:17;;;;;;;2.17;1.97;;;28.50;42.70;;;;;;5068157;28;20439;-70
2023/07/22 10:40:54;;;;;;;1.87;1.77;;;28.40;43.20;;;;;;5067512;28;20456;-69
2023/07/22 10:43:34;;;;;;;1.73;1.63;;;27.80;43.90;;;;;;5068377;28;20470;-70
2023/07/22 10:46:07;;;;;;;3.30;1.87;;;27.80;44.40;;;;;;5043137;28;20543;-70
2023/07/22 10:48:39;;;;;;;2.83;1.83;;;27.60;44.50;;;;;;5068668;28;21863;-70
2023/07/22 10:51:07;;;;;;;3.03;1.43;;;27.30;45.10;;;;;;5070226;28;20801;-70
2023/07/22 10:53:32;;;;;;;3.37;2.10;;;27.20;46.10;;;;;;5069252;28;20478;-70
2023/07/22 10:56:13;;;;;;;2.30;2.00;;;27.50;45.70;;;;;;5066691;28;20449;-70
2023/07/22 10:58:44;;;;;;;1.97;1.83;;;27.40;45.20;;;;;;5060610;28;20201;-70
2023/07/22 11:01:26;;;;;;;2.93;2.00;;;27.30;45.60;;;;;;5068941;28;20451;-69
2023/07/22 11:04:17;;;;;;;1.93;1.53;;;27.30;45.90;;;;;;5070240;28;20471;-70
2023/07/22 11:06:46;;;;;;;1.63;1.50;;;27.40;45.70;;;;;;5065374;28;20444;-69
2023/07/22 11:09:27;;;;;;;2.23;2.00;;;27.60;44.30;;;;;;5047430;28;20446;-69
2023/07/22 11:11:58;;;;;;;2.20;2.00;;;28.50;43.60;;;;;;5044629;28;20536;-69
2023/07/22 11:14:25;;;;;;;2.40;1.97;;;28.80;42.90;;;;;;5062434;28;21015;-70
2023/07/22 11:16:51;;;;;;;2.10;1.90;;;28.50;43.20;;;;;;5046900;28;20443;-70
2023/07/22 11:19:26;;;;;;;2.13;1.90;;;27.90;43.90;;;;;;5053668;28;20862;-69
2023/07/22 11:21:53;;;;;;;2.50;2.30;;;27.40;45.10;;;;;;5050640;28;20559;-69
2023/07/22 11:24:19;;;;;;;2.80;2.23;;;27.20;46.30;;;;;;5067883;28;20468;-70
2023/07/22 11:26:46;;;;;;;2.33;2.10;;;27.10;46.80;;;;;;5064593;28;21019;-69
2023/07/22 11:29:13;;;;;;;2.27;1.97;;;26.80;47.10;;;;;;5066516;28;20443;-70
2023/07/22 11:31:45;;;;;;;2.10;1.90;;;26.80;48.10;;;;;;5067294;28;20801;-70
2023/07/22 11:34:14;;;;;;;2.40;2.20;;;26.70;48.10;;;;;;5053323;28;20512;-71
2023/07/22 11:36:40;;;;;;;2.60;2.40;;;27.40;48.00;;;;;;5069650;28;20818;-70
2023/07/22 11:39:20;;;;;;;3.43;3.13;;;28.60;46.30;;;;;;5067452;28;20962;-70
2023/07/22 11:41:47;;;;;;;2.60;2.40;;;29.40;45.20;;;;;;5044873;28;20777;-71
2023/07/22 11:44:18;;;;;;;2.23;2.07;;;30.00;44.00;;;;;;5065681;28;20461;-71
2023/07/22 11:46:53;;;;;;;2.30;2.10;;;30.80;43.50;;;;;;5072759;28;20438;-71
2023/07/22 11:49:26;;;;;;;2.67;2.23;;;31.80;41.10;;;;;;5067440;28;20443;-71
2023/07/22 11:51:57;;;;;;;2.10;2.00;;;32.10;41.00;;;;;;5067350;28;20439;-71
2023/07/22 11:54:23;;;;;;;2.63;1.70;;;31.40;40.50;;;;;;5047557;28;20461;-70
2023/07/22 11:56:48;;;;;;;3.30;3.00;;;30.80;41.20;;;;;;5069357;28;20448;-70
2023/07/22 11:59:14;;;;;;;2.73;2.13;;;30.90;42.30;;;;;;5071415;28;20609;-69
2023/07/22 12:01:43;;;;;;;2.20;1.90;;;30.80;42.40;;;;;;5062922;28;20186;-70
2023/07/22 12:04:11;;;;;;;2.33;2.13;;;30.60;41.80;;;;;;5070808;28;20198;-69
2023/07/22 12:06:37;;;;;;;2.20;2.00;;;29.60;43.20;;;;;;5066011;28;20446;-70
2023/07/22 12:09:03;;;;;;;2.47;2.27;;;29.30;44.40;;;;;;5069877;28;21064;-70
2023/07/22 12:11:33;;;;;;;2.40;1.93;;;28.60;45.00;;;;;;5050726;28;20445;-70
2023/07/22 12:14:09;;;;;;;3.30;2.80;;;28.20;46.00;;;;;;5065833;28;20242;-69
2023/07/22 12:16:36;;;;;;;2.80;2.53;;;27.90;46.90;;;;;;5071228;28;20574;-70
2023/07/22 12:19:03;;;;;;;3.43;2.50;;;27.70;47.90;;;;;;5065571;28;20504;-70
2023/07/22 12:21:28;;;;;;;2.03;1.93;;;27.40;47.70;;;;;;5050281;28;20455;-70
2023/07/22 12:23:55;;;;;;;3.40;2.20;;;27.30;48.20;;;;;;5076230;28;20471;-70
2023/07/22 12:26:21;;;;;;;5.57;2.20;;;27.20;47.90;;;;;;5069944;28;20176;-70
2023/07/22 12:28:46;;;;;;;2.23;2.03;;;27.20;48.20;;;;;;5070122;28;20446;-70
2023/07/22 12:31:12;;;;;;;2.20;2.00;;;27.10;48.80;;;;;;5060145;28;20489;-70
2023/07/22 12:33:38;;;;;;;2.20;2.00;;;27.00;48.80;;;;;;5067294;28;20565;-70
2023/07/22 12:36:04;;;;;;;2.37;2.17;;;27.10;49.00;;;;;;5071254;28;20233;-70
2023/07/22 12:38:30;;;;;;;2.40;2.20;;;27.30;49.10;;;;;;5072772;28;20226;-70
2023/07/22 12:40:56;;;;;;;2.27;2.07;;;27.20;48.30;;;;;;5054776;28;20453;-69
2023/07/22 12:43:22;;;;;;;2.50;2.30;;;27.20;47.70;;;;;;5063431;28;21095;-69
2023/07/22 12:45:47;;;;;;;2.50;2.30;;;27.20;48.00;;;;;;5076093;28;20180;-70